createdAt,value
2022-12-12T00:01:23.055Z,18.10
2022-12-12T00:03:50.212Z,17.90
2022-12-12T00:06:17.111Z,17.43
2022-12-12T00:08:43.998Z,17.23
2022-12-12T00:11:10.873Z,16.87
2022-12-12T00:13:37.730Z,16.77
2022-12-12T00:16:05.796Z,17.57
2022-12-12T00:18:32.531Z,17.13
2022-12-12T00:20:59.554Z,18.20
2022-12-12T00:23:26.791Z,18.07
2022-12-12T00:25:56.379Z,17.47
2022-12-12T00:28:24.090Z,17.43
2022-12-12T00:30:50.837Z,17.50
2022-12-12T00:33:17.794Z,17.03
2022-12-12T00:35:45.212Z,16.97
2022-12-12T00:38:11.872Z,18.30
2022-12-12T00:40:38.594Z,18.03
2022-12-12T00:43:05.244Z,17.87
2022-12-12T00:45:31.859Z,18.17
2022-12-12T00:47:58.463Z,18.67
2022-12-12T00:50:25.168Z,17.23
2022-12-12T00:52:51.795Z,18.40
2022-12-12T00:55:18.482Z,17.30
2022-12-12T00:57:45.114Z,17.57
2022-12-12T01:00:19.925Z,17.07
2022-12-12T01:02:47.121Z,18.60
2022-12-12T01:05:14.607Z,17.83
2022-12-12T01:07:41.744Z,17.20
2022-12-12T01:10:12.372Z,17.47
2022-12-12T01:12:39.310Z,17.43
2022-12-12T01:15:13.480Z,19.10
2022-12-12T01:17:40.340Z,16.53
2022-12-12T01:20:15.340Z,18.80
2022-12-12T01:22:41.977Z,17.77
2022-12-12T01:25:10.321Z,17.40
2022-12-12T01:27:37.313Z,17.87
2022-12-12T01:30:05.836Z,17.90
2022-12-12T01:32:32.502Z,17.30
2022-12-12T01:34:59.146Z,18.10
2022-12-12T01:37:25.858Z,17.77
2022-12-12T01:39:52.422Z,18.33
2022-12-12T01:42:19.700Z,18.13
2022-12-12T01:44:51.695Z,18.47
2022-12-12T01:47:20.856Z,18.43
2022-12-12T01:49:54.351Z,18.40
2022-12-12T01:52:26.638Z,18.07
2022-12-12T01:54:58.405Z,18.10
2022-12-12T01:57:32.022Z,18.00
2022-12-12T02:00:01.501Z,18.80
2022-12-12T02:02:29.622Z,18.10
2022-12-12T02:04:57.775Z,18.73
2022-12-12T02:07:24.360Z,19.03
2022-12-12T02:09:51.528Z,18.80
2022-12-12T02:12:18.166Z,19.30
2022-12-12T02:14:52.313Z,18.77
2022-12-12T02:17:54.016Z,20.73
2022-12-12T02:20:40.257Z,19.47
2022-12-12T02:23:28.558Z,18.97
2022-12-12T02:26:12.943Z,18.97
2022-12-12T02:29:17.252Z,19.70
2022-12-12T02:31:56.815Z,19.37
2022-12-12T02:34:38.331Z,20.73
2022-12-12T02:37:23.388Z,19.60
2022-12-12T02:40:22.614Z,18.87
2022-12-12T02:43:02.839Z,18.87
2022-12-12T02:46:18.416Z,19.47
2022-12-12T02:49:07.259Z,18.97
2022-12-12T02:51:35.925Z,21.43
2022-12-12T02:54:05.798Z,19.27
2022-12-12T02:56:41.610Z,20.07
2022-12-12T02:59:09.294Z,19.40
2022-12-12T03:01:50.328Z,21.53
2022-12-12T03:04:48.342Z,20.27
2022-12-12T03:08:02.141Z,21.57
2022-12-12T03:10:37.553Z,21.60
2022-12-12T03:13:39.383Z,20.47
2022-12-12T03:16:29.446Z,19.90
2022-12-12T03:19:07.908Z,21.03
2022-12-12T03:21:52.809Z,21.97
2022-12-12T03:24:39.946Z,20.23
2022-12-12T03:27:24.040Z,20.63
2022-12-12T03:30:02.062Z,19.97
2022-12-12T03:32:35.066Z,20.47
2022-12-12T03:35:14.523Z,20.70
2022-12-12T03:37:49.190Z,20.23
2022-12-12T03:40:29.497Z,20.67
2022-12-12T03:43:17.846Z,20.73
2022-12-12T03:45:48.104Z,21.23
2022-12-12T03:48:33.276Z,21.50
2022-12-12T03:51:18.705Z,20.80
2022-12-12T03:53:55.068Z,20.40
2022-12-12T03:56:39.767Z,22.20
2022-12-12T03:59:11.817Z,20.60
2022-12-12T04:01:50.194Z,21.40
2022-12-12T04:04:21.230Z,21.90
2022-12-12T04:06:59.634Z,22.23
2022-12-12T04:09:46.359Z,21.93
2022-12-12T04:12:54.749Z,25.00
2022-12-12T04:15:48.087Z,21.80
2022-12-12T04:18:40.500Z,22.17
2022-12-12T04:21:38.699Z,21.53
2022-12-12T04:24:24.186Z,21.87
2022-12-12T04:27:03.640Z,22.23
2022-12-12T04:29:47.123Z,21.43
2022-12-12T04:32:35.602Z,21.77
2022-12-12T04:35:07.539Z,21.67
2022-12-12T04:37:39.758Z,21.10
2022-12-12T04:40:09.844Z,22.50
2022-12-12T04:42:42.220Z,21.73
2022-12-12T04:45:14.317Z,21.87
2022-12-12T04:47:45.446Z,22.13
2022-12-12T04:50:13.346Z,22.53
2022-12-12T04:52:41.623Z,22.87
2022-12-12T04:55:21.201Z,22.00
2022-12-12T04:57:54.678Z,21.87
2022-12-12T05:00:23.524Z,21.93
2022-12-12T05:03:02.049Z,22.27
2022-12-12T05:05:35.057Z,22.00
2022-12-12T05:08:14.718Z,22.23
2022-12-12T05:10:46.382Z,21.20
2022-12-12T05:13:18.232Z,21.60
2022-12-12T05:15:46.329Z,22.20
2022-12-12T05:18:13.017Z,22.20
2022-12-12T05:20:39.898Z,22.03
2022-12-12T05:23:06.702Z,22.53
2022-12-12T05:25:33.416Z,20.80
2022-12-12T05:28:00.119Z,21.53
2022-12-12T05:30:27.229Z,21.87
2022-12-12T05:32:54.198Z,21.97
2022-12-12T05:35:21.056Z,21.90
2022-12-12T05:37:51.624Z,21.93
2022-12-12T05:40:20.003Z,21.27
2022-12-12T05:42:46.619Z,23.43
2022-12-12T05:45:13.668Z,21.07
2022-12-12T05:47:40.556Z,21.40
2022-12-12T05:50:07.575Z,22.50
2022-12-12T05:52:34.501Z,22.07
2022-12-12T05:55:01.218Z,23.17
2022-12-12T05:57:27.823Z,22.17
2022-12-12T05:59:54.437Z,22.10
2022-12-12T06:02:21.084Z,23.23
2022-12-12T06:04:47.710Z,21.00
2022-12-12T06:07:14.268Z,22.60
2022-12-12T06:09:40.899Z,22.70
2022-12-12T06:12:07.961Z,23.30
2022-12-12T06:14:34.637Z,23.03
2022-12-12T06:17:01.284Z,23.07
2022-12-12T06:19:27.892Z,23.27
2022-12-12T06:21:54.519Z,23.30
2022-12-12T06:24:23.448Z,22.30
2022-12-12T06:26:50.112Z,23.07
2022-12-12T06:29:16.882Z,22.40
2022-12-12T06:31:43.564Z,23.30
2022-12-12T06:34:10.305Z,22.93
2022-12-12T06:36:37.073Z,22.53
2022-12-12T06:39:04.004Z,23.10
2022-12-12T06:41:31.875Z,22.73
2022-12-12T06:43:58.519Z,22.97
2022-12-12T06:46:27.544Z,22.90
2022-12-12T06:48:55.866Z,22.77
2022-12-12T06:51:25.140Z,23.13
2022-12-12T06:53:52.483Z,22.07
2022-12-12T06:56:22.508Z,23.90
2022-12-12T06:58:49.359Z,22.43
2022-12-12T07:01:22.047Z,21.93
2022-12-12T07:03:50.227Z,23.20
2022-12-12T07:06:18.050Z,24.63
2022-12-12T07:08:44.764Z,23.30
2022-12-12T07:11:17.199Z,23.30
2022-12-12T07:13:44.088Z,23.37
2022-12-12T07:16:10.929Z,24.10
2022-12-12T07:18:37.681Z,23.83
2022-12-12T07:21:09.825Z,23.60
2022-12-12T07:23:37.192Z,24.63
2022-12-12T07:26:08.109Z,25.00
2022-12-12T07:28:35.401Z,24.67
2022-12-12T07:31:06.105Z,23.07
2022-12-12T07:33:42.686Z,25.40
2022-12-12T07:36:10.791Z,24.87
2022-12-12T07:38:37.733Z,25.63
2022-12-12T07:41:06.146Z,24.93
2022-12-12T07:43:39.825Z,25.23
2022-12-12T07:46:11.954Z,24.97
2022-12-12T07:48:38.651Z,24.37
2022-12-12T07:51:05.420Z,24.57
2022-12-12T07:53:31.997Z,25.00
2022-12-12T07:55:58.753Z,23.17
2022-12-12T07:58:25.622Z,25.67
2022-12-12T08:00:52.291Z,23.17
2022-12-12T08:03:18.870Z,25.10
2022-12-12T08:05:45.507Z,23.70
2022-12-12T08:08:12.190Z,24.77
2022-12-12T08:10:40.476Z,23.50
2022-12-12T08:13:07.327Z,23.00
2022-12-12T08:15:34.499Z,25.10
2022-12-12T08:18:01.616Z,24.10
2022-12-12T08:20:28.435Z,24.10
2022-12-12T08:22:55.053Z,22.70
2022-12-12T08:25:21.784Z,22.33
2022-12-12T08:27:48.402Z,22.97
2022-12-12T08:30:15.012Z,23.17
2022-12-12T08:32:41.639Z,22.97
2022-12-12T08:35:08.866Z,23.27
2022-12-12T08:37:35.649Z,23.73
2022-12-12T08:40:03.633Z,22.93
2022-12-12T08:42:30.372Z,23.13
2022-12-12T08:44:57.115Z,22.23
2022-12-12T08:47:23.767Z,23.23
2022-12-12T08:49:50.387Z,23.13
2022-12-12T08:52:17.060Z,22.07
2022-12-12T08:54:44.091Z,22.50
2022-12-12T08:57:10.853Z,21.60
2022-12-12T08:59:37.471Z,22.20
2022-12-12T09:02:04.210Z,21.50
2022-12-12T09:04:31.060Z,20.83
2022-12-12T09:06:57.727Z,20.97
2022-12-12T09:09:24.897Z,21.97
2022-12-12T09:11:51.657Z,21.70
2022-12-12T09:14:18.303Z,22.77
2022-12-12T09:16:45.421Z,21.53
2022-12-12T09:19:12.100Z,22.43
2022-12-12T09:21:38.711Z,21.33
2022-12-12T09:24:05.633Z,21.30
2022-12-12T09:26:33.854Z,22.10
2022-12-12T09:29:00.554Z,21.60
2022-12-12T09:31:27.238Z,21.60
2022-12-12T09:33:54.103Z,21.07
2022-12-12T09:36:21.346Z,21.17
2022-12-12T09:38:47.983Z,20.87
2022-12-12T09:41:19.272Z,21.50
2022-12-12T09:44:00.364Z,21.33
2022-12-12T09:46:45.479Z,20.97
2022-12-12T09:49:43.216Z,21.17
2022-12-12T09:52:17.486Z,20.63
2022-12-12T09:54:44.965Z,21.27
2022-12-12T09:57:27.780Z,19.53
2022-12-12T10:00:06.152Z,20.73
2022-12-12T10:03:03.795Z,19.43
2022-12-12T10:06:28.694Z,20.30
2022-12-12T10:09:13.853Z,17.63
2022-12-12T10:11:50.493Z,18.07
2022-12-12T10:14:21.267Z,17.37
2022-12-12T10:16:53.909Z,18.53
2022-12-12T10:19:27.445Z,18.50
2022-12-12T10:22:00.296Z,24.77
2022-12-12T10:24:59.635Z,20.70
2022-12-12T10:27:26.268Z,21.77
2022-12-12T10:29:54.023Z,21.30
2022-12-12T10:32:28.783Z,24.20
2022-12-12T10:35:03.363Z,23.90
2022-12-12T10:37:55.406Z,24.03
2022-12-12T10:40:40.690Z,23.17
2022-12-12T10:43:22.461Z,24.30
2022-12-12T10:46:37.726Z,24.47
2022-12-12T10:49:19.189Z,22.63
2022-12-12T10:51:48.364Z,23.43
2022-12-12T10:54:18.610Z,23.20
2022-12-12T10:57:07.487Z,22.63
2022-12-12T10:59:47.098Z,22.27
2022-12-12T11:02:22.817Z,21.47
2022-12-12T11:04:49.468Z,22.57
2022-12-12T11:07:23.235Z,21.83
2022-12-12T11:09:49.813Z,21.80
2022-12-12T11:12:16.790Z,22.13
2022-12-12T11:14:48.203Z,21.73
2022-12-12T11:17:25.470Z,22.23
2022-12-12T11:19:56.043Z,23.13
2022-12-12T11:22:23.601Z,22.47
2022-12-12T11:24:50.968Z,22.90
2022-12-12T11:27:22.885Z,23.10
2022-12-12T11:29:53.540Z,23.33
2022-12-12T11:32:30.795Z,22.37
2022-12-12T11:35:01.548Z,23.57
2022-12-12T11:37:37.832Z,24.97
2022-12-12T11:40:05.984Z,21.47
2022-12-12T11:42:34.300Z,22.43
2022-12-12T11:45:09.797Z,23.23
2022-12-12T11:47:41.506Z,22.37
2022-12-12T11:50:21.915Z,23.33
2022-12-12T11:52:51.001Z,22.17
2022-12-12T11:55:24.951Z,21.47
2022-12-12T11:58:05.018Z,22.10
2022-12-12T12:01:06.992Z,22.83
2022-12-12T12:04:19.827Z,22.23
2022-12-12T12:07:29.111Z,21.80
2022-12-12T12:10:10.732Z,23.93
2022-12-12T12:13:16.700Z,23.43
2022-12-12T12:16:25.720Z,22.63
2022-12-12T12:19:23.207Z,21.97
2022-12-12T12:21:55.596Z,22.23
2022-12-12T12:25:13.368Z,22.63
2022-12-12T12:28:05.164Z,23.60
2022-12-12T12:31:10.352Z,23.00
2022-12-12T12:34:04.560Z,22.03
2022-12-12T12:36:57.649Z,22.13
2022-12-12T12:39:55.794Z,21.30
2022-12-12T12:42:34.703Z,20.87
2022-12-12T12:45:16.964Z,20.60
2022-12-12T12:47:52.554Z,20.53
2022-12-12T12:50:29.291Z,23.97
2022-12-12T12:53:18.326Z,21.63
2022-12-12T12:55:50.862Z,20.77
2022-12-12T12:58:29.229Z,20.77
2022-12-12T13:01:02.455Z,19.70
2022-12-12T13:03:37.393Z,18.47
2022-12-12T13:06:12.589Z,21.27
2022-12-12T13:08:47.083Z,19.80
2022-12-12T13:11:33.188Z,20.50
2022-12-12T13:14:13.845Z,18.93
2022-12-12T13:16:41.873Z,20.53
2022-12-12T13:19:21.383Z,19.67
2022-12-12T13:22:00.702Z,19.30
2022-12-12T13:24:58.100Z,19.97
2022-12-12T13:27:34.541Z,18.93
2022-12-12T13:30:40.243Z,19.07
2022-12-12T13:33:26.614Z,19.07
2022-12-12T13:35:58.165Z,19.33
2022-12-12T13:38:30.701Z,20.20
2022-12-12T13:41:00.255Z,19.00
2022-12-12T13:43:33.146Z,19.63
2022-12-12T13:46:31.686Z,18.83
2022-12-12T13:49:07.445Z,18.13
2022-12-12T13:51:37.341Z,18.03
2022-12-12T13:54:12.130Z,17.83
2022-12-12T13:56:51.793Z,16.33
2022-12-12T13:59:27.376Z,16.17
2022-12-12T14:02:02.843Z,16.10
2022-12-12T14:04:41.472Z,15.80
2022-12-12T14:07:25.476Z,17.67
2022-12-12T14:09:55.820Z,17.50
2022-12-12T14:12:32.052Z,17.23
2022-12-12T14:15:05.953Z,16.80
2022-12-12T14:17:42.265Z,17.33
2022-12-12T14:20:34.632Z,17.67
2022-12-12T14:23:12.560Z,17.70
2022-12-12T14:25:41.174Z,15.87
2022-12-12T14:28:21.617Z,16.50
2022-12-12T14:30:55.920Z,16.23
2022-12-12T14:33:45.230Z,15.27
2022-12-12T14:36:36.929Z,15.53
2022-12-12T14:39:18.386Z,17.17
2022-12-12T14:41:46.721Z,17.20
2022-12-12T14:44:35.626Z,17.43
2022-12-12T14:47:08.387Z,18.67
2022-12-12T14:49:35.056Z,21.27
2022-12-12T14:52:01.939Z,20.17
2022-12-12T14:54:28.687Z,22.03
2022-12-12T14:57:01.293Z,22.03
2022-12-12T14:59:34.125Z,20.93
2022-12-12T15:02:26.047Z,21.83
2022-12-12T15:05:04.129Z,22.37
2022-12-12T15:07:34.029Z,23.47
2022-12-12T15:10:01.049Z,21.90
2022-12-12T15:12:44.143Z,22.30
2022-12-12T15:15:27.535Z,22.63
2022-12-12T15:17:58.122Z,23.50
2022-12-12T15:20:26.970Z,24.23
2022-12-12T15:23:18.119Z,23.97
2022-12-12T15:25:53.896Z,23.30
2022-12-12T15:28:22.124Z,22.87
2022-12-12T15:30:52.184Z,22.73
2022-12-12T15:33:20.340Z,24.20
2022-12-12T15:36:01.168Z,23.87
2022-12-12T15:38:29.563Z,23.57
2022-12-12T15:40:58.733Z,24.43
2022-12-12T15:43:27.991Z,24.87
2022-12-12T15:46:13.656Z,25.47
2022-12-12T15:48:45.016Z,25.33
2022-12-12T15:51:13.147Z,24.33
2022-12-12T15:53:49.019Z,24.60
2022-12-12T15:56:25.104Z,24.60
2022-12-12T15:59:12.829Z,24.60
2022-12-12T16:01:41.032Z,23.37
2022-12-12T16:04:10.660Z,24.73
2022-12-12T16:06:43.190Z,24.83
2022-12-12T16:09:23.214Z,23.83
2022-12-12T16:11:57.909Z,24.60
2022-12-12T16:14:41.624Z,24.00
2022-12-12T16:17:19.307Z,25.37
2022-12-12T16:19:58.125Z,23.17
2022-12-12T16:22:47.497Z,23.30
2022-12-12T16:25:26.487Z,25.57
2022-12-12T16:28:23.172Z,25.03
2022-12-12T16:30:59.063Z,24.33
2022-12-12T16:33:37.549Z,25.17
2022-12-12T16:36:07.554Z,24.10
2022-12-12T16:38:35.421Z,26.97
2022-12-12T16:41:07.893Z,26.10
2022-12-12T16:43:35.095Z,25.20
2022-12-12T16:46:01.773Z,24.13
2022-12-12T16:48:36.522Z,25.17
2022-12-12T16:51:08.635Z,24.17
2022-12-12T16:53:36.728Z,24.60
2022-12-12T16:56:03.663Z,26.47
2022-12-12T16:58:32.022Z,24.57
2022-12-12T17:01:01.574Z,25.20
2022-12-12T17:03:29.791Z,25.97
2022-12-12T17:05:56.425Z,25.23
2022-12-12T17:08:23.162Z,25.97
2022-12-12T17:10:53.072Z,26.10
2022-12-12T17:13:37.512Z,26.00
2022-12-12T17:16:04.336Z,25.47
2022-12-12T17:18:30.973Z,25.10
2022-12-12T17:20:57.569Z,25.70
2022-12-12T17:23:30.466Z,25.10
2022-12-12T17:26:03.652Z,27.20
2022-12-12T17:28:32.264Z,25.37
2022-12-12T17:30:59.089Z,27.40
2022-12-12T17:33:26.169Z,26.10
2022-12-12T17:36:01.032Z,24.53
2022-12-12T17:38:28.157Z,26.23
2022-12-12T17:40:56.671Z,26.77
2022-12-12T17:43:24.607Z,25.20
2022-12-12T17:46:03.439Z,25.40
2022-12-12T17:48:35.214Z,25.10
2022-12-12T17:51:06.674Z,26.87
2022-12-12T17:53:40.617Z,26.10
2022-12-12T17:56:09.196Z,25.57
2022-12-12T17:58:38.073Z,26.43
2022-12-12T18:01:19.348Z,25.97
2022-12-12T18:03:46.943Z,24.63
2022-12-12T18:06:14.851Z,26.10
2022-12-12T18:08:42.533Z,25.77
2022-12-12T18:11:11.593Z,25.70
2022-12-12T18:13:39.393Z,26.07
2022-12-12T18:16:08.224Z,26.47
2022-12-12T18:18:35.086Z,26.07
2022-12-12T18:21:12.862Z,26.60
2022-12-12T18:23:43.007Z,25.43
2022-12-12T18:26:18.584Z,26.80
2022-12-12T18:28:49.747Z,25.57
2022-12-12T18:31:16.600Z,29.07
2022-12-12T18:33:43.440Z,26.57
2022-12-12T18:36:14.272Z,26.33
2022-12-12T18:38:45.871Z,27.03
2022-12-12T18:41:14.736Z,27.00
2022-12-12T18:43:41.479Z,27.63
2022-12-12T18:46:14.208Z,27.50
2022-12-12T18:48:42.917Z,27.73
2022-12-12T18:51:14.455Z,26.33
2022-12-12T18:53:41.665Z,26.97
2022-12-12T18:56:13.918Z,25.97
2022-12-12T18:58:42.377Z,27.07
2022-12-12T19:01:12.700Z,26.10
2022-12-12T19:03:47.192Z,26.60
2022-12-12T19:06:16.604Z,27.20
2022-12-12T19:08:43.676Z,27.07
2022-12-12T19:11:11.453Z,27.10
2022-12-12T19:13:38.111Z,25.97
2022-12-12T19:16:06.740Z,27.07
2022-12-12T19:18:34.954Z,27.73
2022-12-12T19:21:15.185Z,26.50
2022-12-12T19:23:45.371Z,26.50
2022-12-12T19:26:35.383Z,26.90
2022-12-12T19:29:05.098Z,28.57
2022-12-12T19:31:34.374Z,26.63
2022-12-12T19:34:02.384Z,28.10
2022-12-12T19:36:29.913Z,27.50
2022-12-12T19:38:58.635Z,27.07
2022-12-12T19:41:25.570Z,27.93
2022-12-12T19:43:53.437Z,27.47
2022-12-12T19:46:23.629Z,28.43
2022-12-12T19:48:54.706Z,27.23
2022-12-12T19:51:25.564Z,27.37
2022-12-12T19:53:56.198Z,27.93
2022-12-12T19:56:26.395Z,27.70
2022-12-12T19:58:53.586Z,27.43
2022-12-12T20:01:23.307Z,27.47
2022-12-12T20:03:54.918Z,27.40
2022-12-12T20:06:22.656Z,27.50
2022-12-12T20:08:52.465Z,26.07
2022-12-12T20:11:23.519Z,26.73
2022-12-12T20:13:52.719Z,26.07
2022-12-12T20:16:22.482Z,26.57
2022-12-12T20:18:50.419Z,26.67
2022-12-12T20:21:43.360Z,27.47
2022-12-12T20:24:06.735Z,28.37
2022-12-12T20:26:34.141Z,27.27
2022-12-12T20:29:01.087Z,29.00
2022-12-12T20:31:31.051Z,28.40
2022-12-12T20:33:59.026Z,28.80
2022-12-12T20:36:28.506Z,29.37
2022-12-12T20:38:56.656Z,29.97
2022-12-12T20:41:27.826Z,28.57
2022-12-12T20:43:55.888Z,29.20
2022-12-12T20:46:29.829Z,28.93
2022-12-12T20:48:58.591Z,29.33
2022-12-12T20:54:22.171Z,31.67
2022-12-12T20:56:49.289Z,32.03
2022-12-12T20:59:18.381Z,31.23
2022-12-12T21:01:46.991Z,32.30
2022-12-12T21:04:24.052Z,32.03
2022-12-12T21:06:51.546Z,32.07
2022-12-12T21:09:24.277Z,31.33
2022-12-12T21:11:57.688Z,29.87
2022-12-12T21:14:30.453Z,29.83
2022-12-12T21:16:57.058Z,31.97
2022-12-12T21:19:23.977Z,31.47
2022-12-12T21:21:51.465Z,29.73
2022-12-12T21:24:18.631Z,31.47
2022-12-12T21:26:45.942Z,33.20
2022-12-12T21:29:12.755Z,34.40
2022-12-12T21:31:50.353Z,32.17
2022-12-12T21:34:20.267Z,32.50
2022-12-12T21:36:49.227Z,32.17
2022-12-12T21:39:15.825Z,33.30
2022-12-12T21:41:43.801Z,33.83
2022-12-12T21:44:10.605Z,34.93
2022-12-12T21:46:39.178Z,32.60
2022-12-12T21:49:26.458Z,34.10
2022-12-12T21:51:55.726Z,32.67
2022-12-12T21:54:22.927Z,31.07
2022-12-12T21:56:49.805Z,27.57
2022-12-12T21:59:16.452Z,27.97
2022-12-12T22:01:43.227Z,28.90
2022-12-12T22:04:12.269Z,29.10
2022-12-12T22:06:39.299Z,28.33
2022-12-12T22:09:08.664Z,27.37
2022-12-12T22:11:46.890Z,27.97
2022-12-12T22:14:18.600Z,29.43
2022-12-12T22:16:45.328Z,27.53
2022-12-12T22:19:13.715Z,27.80
2022-12-12T22:21:40.738Z,26.60
2022-12-12T22:24:07.738Z,26.90
2022-12-12T22:26:37.406Z,27.47
2022-12-12T22:29:07.201Z,27.83
2022-12-12T22:31:37.230Z,28.40
2022-12-12T22:34:07.082Z,27.97
2022-12-12T22:36:36.406Z,28.00
2022-12-12T22:39:04.760Z,26.77
2022-12-12T22:41:31.544Z,27.03
2022-12-12T22:44:01.029Z,27.97
2022-12-12T22:46:28.164Z,26.67
2022-12-12T22:48:56.864Z,27.50
2022-12-12T22:51:33.556Z,27.10
2022-12-12T22:54:02.608Z,25.70
2022-12-12T22:56:30.556Z,27.53
2022-12-12T22:58:57.260Z,27.53
2022-12-12T23:01:27.211Z,27.73
2022-12-12T23:03:54.387Z,28.53
2022-12-12T23:06:25.613Z,26.17
2022-12-12T23:08:58.064Z,27.80
2022-12-12T23:11:27.473Z,27.43
2022-12-12T23:13:55.956Z,27.10
2022-12-12T23:16:27.527Z,25.70
2022-12-12T23:18:54.719Z,26.50
2022-12-12T23:21:23.031Z,26.27
2022-12-12T23:23:51.737Z,27.43
2022-12-12T23:26:20.731Z,26.37
2022-12-12T23:28:48.025Z,27.53
2022-12-12T23:31:30.108Z,25.37
2022-12-12T23:33:59.948Z,26.40
2022-12-12T23:36:27.447Z,26.67
2022-12-12T23:38:55.432Z,27.70
2022-12-12T23:41:22.362Z,25.40
2022-12-12T23:43:49.488Z,26.60
2022-12-12T23:46:28.312Z,26.20
2022-12-12T23:49:06.841Z,25.47
2022-12-12T23:51:39.468Z,27.10
2022-12-12T23:54:08.998Z,25.73
2022-12-12T23:56:36.970Z,27.37
2022-12-12T23:59:04.178Z,25.63
